Time;durP1;ratioP1;P1;durP2;ratioP2;P2;SDS_P1;SDS_P2;PMS_P1;PMS_P2;Temp;Humidity;BMP_temperature;BMP_pressure;BME280_temperature;BME280_humidity;BME280_pressure;Samples;Min_cycle;Max_cycle;Signal;HPM_P1;HPM_P2
2023/12/05 00:01:33;;;;;;;24.83;15.30;;;0.50;99.90;;;-0.71;100.00;99885.56;5077059;28;20222;-71
2023/12/05 00:04:01;;;;;;;25.60;16.37;;;0.50;99.90;;;-0.72;99.56;99890.00;5076894;28;20221;-71
2023/12/05 00:06:30;;;;;;;24.57;15.97;;;0.40;99.90;;;-0.68;100.00;99877.47;5076864;28;20235;-71
2023/12/05 00:08:58;;;;;;;23.50;15.13;;;0.50;99.90;;;-0.65;99.78;99875.47;5076891;28;20209;-71
2023/12/05 00:11:28;;;;;;;23.90;15.80;;;0.50;99.90;;;-0.66;99.38;99879.06;5076730;28;20643;-71
2023/12/05 00:13:56;;;;;;;22.77;15.23;;;0.50;99.90;;;-0.64;99.66;99871.88;5076662;28;20201;-71
2023/12/05 00:16:25;;;;;;;22.43;15.27;;;0.50;99.90;;;-0.66;99.11;99871.19;5076596;28;20205;-71
2023/12/05 00:18:53;;;;;;;23.27;15.80;;;0.50;99.90;;;-0.63;100.00;99867.47;5076650;28;20205;-71
2023/12/05 00:21:22;;;;;;;24.17;15.47;;;0.50;99.90;;;-0.62;99.12;99859.47;5076557;28;20209;-71
2023/12/05 00:23:50;;;;;;;21.73;14.67;;;0.50;99.90;;;-0.64;99.42;99868.41;5076166;28;20262;-72
2023/12/05 00:26:18;;;;;;;25.57;16.37;;;0.50;99.90;;;-0.69;99.27;99860.03;5076461;28;20237;-72
2023/12/05 00:28:47;;;;;;;25.57;16.23;;;0.50;99.90;;;-0.66;99.37;99857.19;5076474;28;20304;-72
2023/12/05 00:31:16;;;;;;;24.67;16.10;;;0.50;99.90;;;-0.68;99.90;99859.91;5076081;28;20236;-72
2023/12/05 00:33:44;;;;;;;28.83;15.60;;;0.50;99.90;;;-0.70;99.30;99855.72;5076091;28;20193;-72
2023/12/05 00:36:13;;;;;;;24.97;15.70;;;0.50;99.90;;;-0.73;99.32;99856.78;5076244;28;20300;-72
2023/12/05 00:38:41;;;;;;;25.30;16.63;;;0.40;99.90;;;-0.73;99.97;99854.16;5075930;28;20670;-72
2023/12/05 00:41:09;;;;;;;25.37;16.30;;;0.60;99.90;;;-0.73;99.68;99850.69;5076106;28;20213;-72
2023/12/05 00:43:37;;;;;;;24.03;15.57;;;0.50;99.90;;;-0.73;100.00;99846.28;5074408;28;20754;-72
2023/12/05 00:46:08;;;;;;;26.30;16.30;;;0.50;99.90;;;-0.70;100.00;99848.69;5076149;28;20232;-72
2023/12/05 00:48:36;;;;;;;26.10;16.90;;;0.40;99.90;;;-0.67;99.67;99845.81;5076149;28;20198;-72
2023/12/05 00:51:05;;;;;;;26.83;16.00;;;0.50;99.90;;;-0.67;99.27;99845.81;5075943;28;20252;-72
2023/12/05 00:53:34;;;;;;;24.20;16.27;;;0.50;99.90;;;-0.64;98.90;99845.59;5075965;28;20243;-72
2023/12/05 00:56:02;;;;;;;26.20;16.80;;;0.50;99.90;;;-0.68;98.73;99844.13;5075893;28;20288;-72
2023/12/05 00:58:30;;;;;;;24.43;16.23;;;0.50;99.90;;;-0.62;100.00;99850.75;5075774;28;20209;-72
2023/12/05 01:00:58;;;;;;;26.23;16.63;;;0.50;99.90;;;-0.65;99.42;99837.84;5075538;28;20213;-72
2023/12/05 01:03:28;;;;;;;26.40;16.20;;;0.60;99.90;;;-0.62;99.30;99835.00;5075614;28;20237;-72
2023/12/05 01:05:56;;;;;;;24.70;16.20;;;0.50;99.90;;;-0.69;99.04;99831.97;5075745;28;20209;-72
2023/12/05 01:08:25;;;;;;;26.17;16.60;;;0.60;99.90;;;-0.71;99.25;99828.59;5075689;28;20216;-72
2023/12/05 01:10:53;;;;;;;25.60;15.83;;;0.60;99.90;;;-0.69;99.79;99828.50;5075646;28;20293;-72
2023/12/05 01:13:24;;;;;;;25.93;16.37;;;0.50;99.90;;;-0.75;99.50;99829.75;5075508;28;20231;-72
2023/12/05 01:15:52;;;;;;;22.87;15.53;;;0.50;99.90;;;-0.79;99.03;99822.22;5075530;28;20208;-72
2023/12/05 01:18:20;;;;;;;25.13;16.33;;;0.40;99.90;;;-0.77;98.42;99833.47;5075464;28;20209;-72
2023/12/05 01:20:50;;;;;;;28.33;16.57;;;0.40;99.90;;;-0.75;98.94;99837.66;5075549;28;20259;-72
2023/12/05 01:23:18;;;;;;;29.20;17.50;;;0.50;99.90;;;-0.76;98.74;99830.75;5075272;28;20230;-72
2023/12/05 01:25:46;;;;;;;25.53;16.97;;;0.40;99.90;;;-0.76;98.83;99827.25;5075374;28;20240;-72
2023/12/05 01:28:15;;;;;;;26.23;15.97;;;0.50;99.90;;;-0.73;99.55;99820.00;5075303;28;20205;-72
2023/12/05 01:30:43;;;;;;;26.10;17.63;;;0.40;99.90;;;-0.73;98.87;99814.75;5075368;28;20233;-72
2023/12/05 01:33:11;;;;;;;23.37;16.23;;;0.40;99.90;;;-0.74;98.43;99818.31;5074863;28;20244;-72
2023/12/05 01:35:39;;;;;;;24.43;15.97;;;0.50;99.90;;;-0.73;99.46;99819.16;5075203;28;20209;-72
2023/12/05 01:38:09;;;;;;;24.77;16.93;;;0.40;99.90;;;-0.69;99.00;99818.00;5074901;28;20663;-72
2023/12/05 01:40:37;;;;;;;23.47;15.60;;;0.50;99.90;;;-0.67;99.34;99818.69;5075084;28;20245;-72
2023/12/05 01:43:05;;;;;;;24.80;16.33;;;0.60;99.90;;;-0.64;98.93;99819.31;5074535;28;20661;-72
2023/12/05 01:45:33;;;;;;;23.00;15.90;;;0.50;99.90;;;-0.63;98.82;99821.00;5075013;28;20240;-72
2023/12/05 01:48:03;;;;;;;25.20;15.47;;;0.50;99.90;;;-0.61;98.86;99818.25;5074895;28;20201;-72
2023/12/05 01:50:33;;;;;;;26.80;16.50;;;0.60;99.90;;;-0.66;99.04;99821.22;5075730;28;20213;-72
2023/12/05 01:53:04;;;;;;;24.77;15.63;;;0.60;99.90;;;-0.69;98.87;99826.72;5074762;28;20316;-72
2023/12/05 01:55:36;;;;;;;25.90;16.87;;;0.50;99.90;;;-0.68;98.75;99823.13;5074019;28;20648;-72
2023/12/05 01:58:08;;;;;;;26.83;16.43;;;0.40;99.90;;;-0.71;99.40;99823.34;5074710;28;20281;-72
2023/12/05 02:00:39;;;;;;;25.97;16.73;;;0.40;99.90;;;-0.66;99.89;99823.84;5074433;28;20638;-72
2023/12/05 02:03:08;;;;;;;27.67;16.40;;;0.50;99.90;;;-0.71;99.33;99817.25;5074217;28;20612;-72
2023/12/05 02:05:37;;;;;;;24.73;16.37;;;0.40;99.90;;;-0.72;99.79;99815.59;5074306;28;20671;-72
2023/12/05 02:08:09;;;;;;;27.47;16.93;;;0.40;99.90;;;-0.69;99.65;99816.19;5074505;28;20210;-72
2023/12/05 02:10:39;;;;;;;28.23;18.33;;;0.50;99.90;;;-0.69;100.00;99810.09;5074512;28;20200;-72
2023/12/05 02:13:06;;;;;;;27.90;17.00;;;0.50;99.90;;;-0.66;100.00;99810.72;5074365;28;20283;-72
2023/12/05 02:15:34;;;;;;;27.70;17.20;;;0.50;99.90;;;-0.69;99.83;99799.59;5074073;28;20296;-72
2023/12/05 02:18:14;;;;;;;29.53;18.07;;;0.40;99.90;;;-0.70;100.00;99796.13;5074367;28;20216;-72
2023/12/05 02:20:54;;;;;;;28.40;17.80;;;0.40;99.90;;;-0.67;100.00;99793.25;5074308;28;20221;-72
2023/12/05 02:23:55;;;;;;;28.00;18.23;;;0.50;99.90;;;-0.72;100.00;99800.63;5073785;28;20239;-72
2023/12/05 02:26:40;;;;;;;27.73;16.93;;;0.40;99.90;;;-0.69;100.00;99789.06;5074273;28;20251;-72
2023/12/05 02:29:09;;;;;;;27.10;17.87;;;0.50;99.90;;;-0.74;100.00;99785.94;5074327;28;20201;-72
2023/12/05 02:31:38;;;;;;;26.10;17.97;;;0.50;99.90;;;-0.72;100.00;99784.84;5073807;28;20321;-72
2023/12/05 02:34:06;;;;;;;28.30;18.73;;;0.40;99.90;;;-0.72;100.00;99778.78;5074065;28;20246;-72
2023/12/05 02:36:49;;;;;;;30.27;18.87;;;0.50;99.90;;;-0.72;100.00;99779.59;5074159;28;20210;-72
2023/12/05 02:39:30;;;;;;;32.00;19.27;;;0.40;99.90;;;-0.71;100.00;99781.28;5073702;28;20739;-72
2023/12/05 02:42:01;;;;;;;27.67;17.93;;;0.50;99.90;;;-0.67;100.00;99772.22;5073883;28;20245;-72
2023/12/05 02:44:41;;;;;;;29.03;18.53;;;0.50;99.90;;;-0.71;100.00;99770.78;5073906;28;20300;-72
2023/12/05 02:47:14;;;;;;;29.87;19.13;;;0.50;99.90;;;-0.69;100.00;99768.91;5073892;28;20189;-72
2023/12/05 02:49:42;;;;;;;31.30;19.77;;;0.50;99.90;;;-0.70;100.00;99761.94;5073805;28;20228;-72
2023/12/05 02:52:11;;;;;;;29.30;19.13;;;0.40;99.90;;;-0.69;100.00;99771.53;5073648;28;20225;-72
2023/12/05 02:54:39;;;;;;;29.63;19.50;;;0.50;99.90;;;-0.73;100.00;99764.81;5073702;28;20244;-72
2023/12/05 02:57:07;;;;;;;32.37;19.33;;;0.40;99.90;;;-0.69;100.00;99768.91;5073434;28;20209;-72
2023/12/05 02:59:38;;;;;;;30.53;19.40;;;0.50;99.90;;;-0.71;100.00;99762.88;5073679;28;20296;-72
2023/12/05 03:02:06;;;;;;;28.73;18.47;;;0.50;99.90;;;-0.72;100.00;99753.31;5073570;28;20316;-72
2023/12/05 03:04:35;;;;;;;29.47;18.27;;;0.40;99.90;;;-0.76;100.00;99757.16;5073499;28;20225;-72
2023/12/05 03:07:03;;;;;;;28.80;18.47;;;0.40;99.90;;;-0.74;100.00;99757.88;5072742;28;20267;-72
2023/12/05 03:09:31;;;;;;;27.70;18.20;;;0.40;99.90;;;-0.76;100.00;99757.16;5073221;28;20205;-72
2023/12/05 03:12:00;;;;;;;27.83;19.20;;;0.40;99.90;;;-0.78;100.00;99752.94;5073463;28;20264;-72
2023/12/05 03:14:29;;;;;;;25.63;18.20;;;0.40;99.90;;;-0.78;100.00;99759.03;5073590;28;20292;-72
2023/12/05 03:16:58;;;;;;;31.40;18.43;;;0.40;99.90;;;-0.76;100.00;99756.31;5073503;28;20637;-72
2023/12/05 03:19:26;;;;;;;48.03;19.37;;;0.40;99.90;;;-0.75;100.00;99753.56;5073604;28;20205;-72
2023/12/05 03:21:55;;;;;;;26.93;18.83;;;0.40;99.90;;;-0.75;100.00;99748.28;5073329;28;20635;-72
2023/12/05 03:24:24;;;;;;;31.47;19.90;;;0.50;99.90;;;-0.76;100.00;99751.06;5073018;28;20776;-72
2023/12/05 03:26:52;;;;;;;30.13;19.17;;;0.40;99.90;;;-0.77;100.00;99744.09;5073415;28;20594;-72
2023/12/05 03:29:20;;;;;;;27.30;17.70;;;0.50;99.90;;;-0.79;99.87;99748.66;5073387;28;20241;-72
2023/12/05 03:31:48;;;;;;;29.00;18.90;;;0.30;99.90;;;-0.85;100.00;99752.56;5073104;28;20323;-72
2023/12/05 03:34:18;;;;;;;28.43;18.97;;;0.30;99.90;;;-0.78;100.00;99753.78;5073040;28;20185;-72
2023/12/05 03:36:46;;;;;;;29.53;18.87;;;0.40;99.90;;;-0.77;99.70;99747.59;5072930;28;20367;-72
2023/12/05 03:39:14;;;;;;;28.60;18.63;;;0.40;99.90;;;-0.72;99.62;99734.13;5073104;28;20750;-72
2023/12/05 03:41:45;;;;;;;30.90;19.43;;;0.40;99.90;;;-0.80;100.00;99739.94;5073235;28;20229;-72
2023/12/05 03:44:14;;;;;;;28.10;17.60;;;0.40;99.90;;;-0.83;100.00;99728.81;5073208;28;20213;-72
2023/12/05 03:46:42;;;;;;;28.57;18.53;;;0.30;99.90;;;-0.85;99.88;99739.41;5072954;28;20248;-72
2023/12/05 03:49:10;;;;;;;30.27;18.57;;;0.30;99.90;;;-0.88;99.86;99736.16;5072880;28;20695;-72
2023/12/05 03:51:40;;;;;;;26.83;17.73;;;0.30;99.90;;;-0.82;100.00;99741.00;5073162;28;20229;-72
2023/12/05 03:54:09;;;;;;;27.37;18.90;;;0.40;99.90;;;-0.78;100.00;99743.25;5073287;28;20205;-72
2023/12/05 03:56:37;;;;;;;27.57;19.37;;;0.50;99.90;;;-0.76;100.00;99741.38;5073220;28;20278;-72
2023/12/05 03:59:05;;;;;;;29.07;18.93;;;0.40;99.90;;;-0.76;99.98;99741.38;5072890;28;20241;-72
2023/12/05 04:01:35;;;;;;;28.97;19.77;;;0.40;99.90;;;-0.75;100.00;99731.69;5072996;28;20249;-72
2023/12/05 04:04:03;;;;;;;31.03;18.63;;;0.40;99.90;;;-0.76;100.00;99733.50;5072939;28;20213;-73
2023/12/05 04:06:31;;;;;;;29.77;19.10;;;0.40;99.90;;;-0.77;100.00;99734.44;5073076;28;20209;-73
2023/12/05 04:09:03;;;;;;;33.87;20.20;;;0.30;99.90;;;-0.76;100.00;99736.13;5073169;28;20259;-73
2023/12/05 04:11:34;;;;;;;28.00;18.73;;;0.40;99.90;;;-0.81;100.00;99735.63;5072669;28;20707;-73
2023/12/05 04:14:02;;;;;;;27.27;18.23;;;0.40;99.90;;;-0.76;100.00;99737.91;5072938;28;20229;-73
2023/12/05 04:16:30;;;;;;;30.30;19.10;;;0.40;99.90;;;-0.78;100.00;99740.63;5072835;28;20251;-73
2023/12/05 04:18:58;;;;;;;29.87;19.03;;;0.40;99.90;;;-0.75;100.00;99729.91;5074952;28;20210;-73
2023/12/05 04:21:27;;;;;;;30.77;18.07;;;0.50;99.90;;;-0.70;100.00;99734.81;5076144;28;20600;-73
2023/12/05 04:23:56;;;;;;;28.23;18.67;;;0.40;99.90;;;-0.75;100.00;99732.53;5076463;28;20300;-73
2023/12/05 04:26:25;;;;;;;28.53;18.93;;;0.60;99.90;;;-0.70;100.00;99730.41;5076941;28;20229;-73
2023/12/05 04:28:55;;;;;;;28.70;18.57;;;0.60;99.90;;;-0.71;100.00;99733.13;5076395;28;20277;-73
2023/12/05 04:31:26;;;;;;;30.20;19.60;;;0.50;99.90;;;-0.77;100.00;99730.97;5075889;28;20236;-73
2023/12/05 04:33:56;;;;;;;26.97;18.47;;;0.40;99.90;;;-0.73;100.00;99740.31;5076358;28;20189;-73
2023/12/05 04:36:25;;;;;;;28.17;18.40;;;0.50;99.90;;;-0.73;100.00;99730.63;5076290;28;20205;-73
2023/12/05 04:38:53;;;;;;;31.10;18.13;;;0.40;99.90;;;-0.72;100.00;99724.41;5076152;28;20237;-73
2023/12/05 04:41:22;;;;;;;28.07;18.47;;;0.40;99.90;;;-0.76;100.00;99725.63;5075862;28;20679;-73
2023/12/05 04:43:51;;;;;;;28.00;19.13;;;0.40;99.90;;;-0.74;100.00;99718.44;5076124;28;20206;-73
2023/12/05 04:46:19;;;;;;;29.83;18.60;;;0.40;99.90;;;-0.70;100.00;99726.94;5076068;28;20229;-73
2023/12/05 04:48:48;;;;;;;30.27;19.23;;;0.60;99.90;;;-0.65;100.00;99727.44;5076031;28;20240;-72
2023/12/05 04:51:20;;;;;;;26.13;18.53;;;0.60;99.90;;;-0.69;100.00;99718.97;5075916;28;20202;-72
2023/12/05 04:53:48;;;;;;;32.60;18.73;;;0.50;99.90;;;-0.69;100.00;99721.59;5075999;28;20269;-72
2023/12/05 04:56:16;;;;;;;27.97;18.37;;;0.50;99.90;;;-0.70;100.00;99730.41;5075966;28;20251;-72
2023/12/05 04:58:44;;;;;;;30.40;18.53;;;0.50;99.90;;;-0.68;100.00;99728.50;5075856;28;20249;-72
2023/12/05 05:01:14;;;;;;;27.57;18.53;;;0.50;99.90;;;-0.66;100.00;99726.59;5076429;28;20210;-72
2023/12/05 05:03:42;;;;;;;28.67;17.50;;;0.50;99.90;;;-0.69;100.00;99726.00;5075434;28;20205;-72
2023/12/05 05:06:12;;;;;;;28.33;19.07;;;0.50;99.90;;;-0.67;100.00;99732.81;5075648;28;20232;-72
2023/12/05 05:08:40;;;;;;;30.27;19.20;;;0.50;99.90;;;-0.67;100.00;99732.81;5075374;28;20667;-72
2023/12/05 05:11:08;;;;;;;29.90;18.43;;;0.50;99.90;;;-0.73;100.00;99724.53;5075545;28;20256;-72
2023/12/05 05:13:37;;;;;;;26.43;18.70;;;0.40;99.90;;;-0.73;100.00;99724.53;5075581;28;20225;-72
2023/12/05 05:16:18;;;;;;;31.10;19.13;;;0.50;99.90;;;-0.72;100.00;99721.78;5075327;28;20231;-72
2023/12/05 05:18:47;;;;;;;27.37;18.93;;;0.60;99.90;;;-0.73;100.00;99725.38;5075469;28;20255;-72
2023/12/05 05:21:16;;;;;;;30.07;19.13;;;0.40;99.90;;;-0.72;100.00;99721.78;5075109;28;20255;-72
2023/12/05 05:23:44;;;;;;;30.53;19.57;;;0.40;99.90;;;-0.73;100.00;99724.53;5075438;28;20210;-72
2023/12/05 05:26:13;;;;;;;29.60;17.57;;;0.40;99.90;;;-0.76;100.00;99725.63;5074990;28;20221;-72
2023/12/05 05:28:42;;;;;;;28.33;19.33;;;0.40;99.90;;;-0.72;100.00;99715.72;5075015;28;20667;-72
2023/12/05 05:31:10;;;;;;;30.67;18.90;;;0.40;99.90;;;-0.76;100.00;99714.25;5074089;28;20544;-72
2023/12/05 05:33:39;;;;;;;29.47;19.60;;;0.40;99.90;;;-0.72;100.00;99715.72;5075201;28;20286;-72
2023/12/05 05:36:09;;;;;;;32.37;20.33;;;0.40;99.90;;;-0.75;100.00;99715.91;5075199;28;20201;-72
2023/12/05 05:38:37;;;;;;;30.00;19.63;;;0.40;99.90;;;-0.72;100.00;99720.97;5075041;28;20245;-72
2023/12/05 05:41:07;;;;;;;31.73;19.80;;;0.40;99.90;;;-0.77;100.00;99718.66;5074985;28;20296;-72
2023/12/05 05:43:35;;;;;;;29.23;18.80;;;0.40;99.90;;;-0.77;100.00;99717.84;5074758;28;20675;-72
2023/12/05 05:46:04;;;;;;;32.30;20.17;;;0.40;99.90;;;-0.76;100.00;99720.34;5074630;28;20591;-72
2023/12/05 05:48:32;;;;;;;31.60;19.83;;;0.40;99.90;;;-0.77;100.00;99717.84;5074905;28;20213;-72
2023/12/05 05:51:02;;;;;;;30.57;19.67;;;0.40;99.90;;;-0.80;100.00;99718.91;5074611;28;20206;-73
2023/12/05 05:53:30;;;;;;;28.70;19.50;;;0.40;99.90;;;-0.75;100.00;99722.00;5075034;28;20220;-73
2023/12/05 05:56:00;;;;;;;31.47;19.70;;;0.40;99.90;;;-0.76;100.00;99720.34;5074470;28;20611;-73
2023/12/05 05:58:29;;;;;;;31.53;19.57;;;0.40;99.90;;;-0.75;100.00;99714.13;5074391;28;20709;-73
2023/12/05 06:00:57;;;;;;;33.20;20.60;;;0.40;99.90;;;-0.74;100.00;99718.44;5074410;28;20206;-73
2023/12/05 06:03:28;;;;;;;30.80;19.87;;;0.40;99.90;;;-0.76;100.00;99720.34;5074451;28;20257;-73
2023/12/05 06:05:58;;;;;;;31.07;19.57;;;0.40;99.90;;;-0.75;100.00;99718.53;5074548;28;20249;-73
2023/12/05 06:08:28;;;;;;;29.30;19.00;;;0.40;99.90;;;-0.74;100.00;99717.59;5074455;28;20268;-73
2023/12/05 06:10:56;;;;;;;32.77;19.60;;;0.40;99.90;;;-0.73;100.00;99724.53;5074411;28;20343;-73
2023/12/05 06:13:25;;;;;;;34.37;20.27;;;0.40;99.90;;;-0.78;100.00;99724.88;5074359;28;20312;-73
2023/12/05 06:15:53;;;;;;;30.53;19.80;;;0.50;99.90;;;-0.80;100.00;99718.91;5074384;28;20216;-73
2023/12/05 06:18:22;;;;;;;32.33;20.90;;;0.40;99.90;;;-0.79;100.00;99720.59;5074509;28;20209;-73
2023/12/05 06:20:51;;;;;;;32.40;20.87;;;0.40;99.90;;;-0.75;100.00;99716.75;5074270;28;20209;-73
2023/12/05 06:23:20;;;;;;;33.27;21.33;;;0.40;99.90;;;-0.80;100.00;99715.44;5074131;28;20248;-73
2023/12/05 06:25:49;;;;;;;33.40;21.17;;;0.40;99.90;;;-0.84;100.00;99722.69;5074186;28;20306;-73
2023/12/05 06:28:17;;;;;;;35.17;20.43;;;0.40;99.90;;;-0.83;100.00;99705.16;5074109;28;20239;-73
2023/12/05 06:30:46;;;;;;;34.30;21.60;;;0.30;99.90;;;-0.83;100.00;99716.50;5074102;28;20236;-73
2023/12/05 06:33:14;;;;;;;34.70;21.70;;;0.30;99.90;;;-0.82;100.00;99709.47;5073613;28;20802;-73
2023/12/05 06:35:42;;;;;;;32.67;21.00;;;0.30;99.90;;;-0.79;100.00;99720.59;5074031;28;20201;-73
2023/12/05 06:38:10;;;;;;;35.53;20.77;;;0.40;99.90;;;-0.81;100.00;99711.97;5073649;28;20659;-73
2023/12/05 06:40:38;;;;;;;34.37;21.43;;;0.50;99.90;;;-0.81;100.00;99709.34;5073883;28;20232;-73
2023/12/05 06:43:08;;;;;;;34.90;20.63;;;0.40;99.90;;;-0.77;100.00;99712.56;5073470;28;20307;-73
2023/12/05 06:45:36;;;;;;;36.20;21.33;;;0.40;99.90;;;-0.78;100.00;99706.47;5073692;28;20622;-73
2023/12/05 06:48:05;;;;;;;33.73;20.80;;;0.30;99.90;;;-0.72;100.00;99713.09;5073833;28;20232;-73
2023/12/05 06:50:34;;;;;;;33.83;21.60;;;0.40;99.90;;;-0.77;100.00;99713.41;5073838;28;20207;-73
2023/12/05 06:53:03;;;;;;;37.30;22.20;;;0.40;99.90;;;-0.72;100.00;99721.78;5073348;28;20627;-73
2023/12/05 06:55:31;;;;;;;33.60;21.83;;;0.40;99.90;;;-0.75;100.00;99722.00;5073803;28;20240;-73
2023/12/05 06:58:00;;;;;;;37.83;22.73;;;0.40;99.90;;;-0.75;100.00;99716.75;5073743;28;20201;-73
2023/12/05 07:00:29;;;;;;;35.93;22.07;;;0.40;99.90;;;-0.74;100.00;99730.75;5073680;28;20201;-73
2023/12/05 07:02:57;;;;;;;34.60;23.13;;;0.40;99.90;;;-0.73;100.00;99724.53;5073583;28;20240;-73
2023/12/05 07:05:25;;;;;;;37.67;22.83;;;0.60;99.90;;;-0.76;100.00;99723.00;5073721;28;20679;-73
2023/12/05 07:07:54;;;;;;;38.03;23.40;;;0.50;99.90;;;-0.79;100.00;99728.47;5073570;28;20229;-75
2023/12/05 07:10:23;;;;;;;40.03;23.00;;;0.50;99.90;;;-0.77;100.00;99733.59;5074667;28;20216;-73
2023/12/05 07:12:51;;;;;;;36.67;21.53;;;0.40;99.90;;;-0.78;100.00;99738.00;5073404;28;20243;-73
2023/12/05 07:15:19;;;;;;;40.07;23.77;;;0.40;99.90;;;-0.75;100.00;99735.16;5073560;28;20213;-73
2023/12/05 07:17:49;;;;;;;39.27;24.33;;;0.40;99.90;;;-0.74;100.00;99736.84;5073433;28;20208;-73
2023/12/05 07:20:17;;;;;;;40.50;23.80;;;0.40;99.90;;;-0.72;100.00;99742.81;5073511;28;20216;-73
2023/12/05 07:22:45;;;;;;;36.80;23.20;;;0.40;99.90;;;-0.72;100.00;99739.38;5073033;28;20671;-73
2023/12/05 07:25:14;;;;;;;42.03;24.97;;;0.40;99.90;;;-0.73;100.00;99728.00;5073452;28;20205;-73
2023/12/05 07:27:42;;;;;;;42.27;24.43;;;0.50;99.90;;;-0.70;100.00;99740.91;5073024;28;20740;-73
2023/12/05 07:30:11;;;;;;;40.07;23.37;;;0.50;99.90;;;-0.67;100.00;99732.81;5073134;28;20572;-73
2023/12/05 07:32:40;;;;;;;38.23;23.60;;;0.40;99.90;;;-0.64;100.00;99739.63;5072781;28;20740;-73
2023/12/05 07:35:10;;;;;;;39.33;24.17;;;0.50;99.90;;;-0.63;100.00;99741.31;5073306;28;20292;-73
2023/12/05 07:37:38;;;;;;;38.20;23.70;;;0.50;99.90;;;-0.67;100.00;99745.94;5073308;28;20201;-73
2023/12/05 07:40:08;;;;;;;43.00;23.57;;;0.50;99.90;;;-0.67;100.00;99743.31;5073286;28;20201;-73
2023/12/05 07:42:37;;;;;;;38.57;23.63;;;0.40;99.90;;;-0.65;100.00;99751.91;5073163;28;20298;-73
2023/12/05 07:45:07;;;;;;;39.40;24.00;;;0.50;99.90;;;-0.65;100.00;99746.66;5073247;28;20209;-73
2023/12/05 07:47:35;;;;;;;40.40;24.97;;;0.50;99.90;;;-0.67;100.00;99750.38;5072886;28;20674;-73
2023/12/05 07:50:06;;;;;;;40.70;25.10;;;0.50;99.90;;;-0.65;100.00;99754.53;5073728;28;20205;-73
2023/12/05 07:52:35;;;;;;;42.50;26.00;;;0.40;99.90;;;-0.66;100.00;99752.06;5073331;28;20752;-73
2023/12/05 07:55:04;;;;;;;38.50;24.53;;;0.60;99.90;;;-0.64;100.00;99745.72;5077093;28;20209;-73
2023/12/05 07:57:32;;;;;;;39.27;24.73;;;0.40;99.90;;;-0.60;100.00;99747.16;5076823;28;20540;-73
2023/12/05 08:00:04;;;;;;;43.23;25.63;;;0.60;99.90;;;-0.57;100.00;99751.34;5076726;28;20667;-73
2023/12/05 08:02:32;;;;;;;39.60;23.87;;;0.60;99.90;;;-0.59;100.00;99748.84;5077793;28;20261;-73
2023/12/05 08:05:00;;;;;;;41.27;25.00;;;0.60;99.90;;;-0.56;100.00;99753.88;5076621;28;20683;-73
2023/12/05 08:07:28;;;;;;;39.13;23.80;;;0.60;99.90;;;-0.57;100.00;99749.56;5076865;28;20252;-73
2023/12/05 08:09:58;;;;;;;39.90;26.00;;;0.60;99.90;;;-0.56;100.00;99748.63;5076923;28;20240;-73
2023/12/05 08:12:26;;;;;;;42.30;25.43;;;0.60;99.90;;;-0.55;100.00;99757.34;5076798;28;20308;-73
2023/12/05 08:14:54;;;;;;;41.80;25.90;;;0.60;99.90;;;-0.54;100.00;99751.97;5076819;28;20209;-73
2023/12/05 08:17:23;;;;;;;40.33;25.23;;;0.60;99.90;;;-0.55;100.00;99752.91;5076701;28;20197;-73
2023/12/05 08:19:51;;;;;;;43.57;25.57;;;0.60;99.90;;;-0.54;100.00;99745.88;5076293;28;20209;-73
2023/12/05 08:22:20;;;;;;;39.27;24.20;;;0.60;99.90;;;-0.50;100.00;99757.84;5076179;28;20702;-73
2023/12/05 08:24:48;;;;;;;42.03;24.37;;;0.70;99.90;;;-0.49;100.00;99763.94;5076184;28;20220;-73
2023/12/05 08:27:18;;;;;;;38.37;24.37;;;0.70;99.90;;;-0.48;100.00;99760.38;5076145;28;20229;-64
2023/12/05 08:29:46;;;;;;;43.47;26.20;;;0.70;99.90;;;-0.49;100.00;99759.53;5076606;28;20209;-71
2023/12/05 08:32:14;;;;;;;44.90;26.10;;;0.70;99.90;;;-0.46;100.00;99759.28;5076030;28;20229;-71
2023/12/05 08:34:42;;;;;;;37.83;23.90;;;0.70;99.90;;;-0.51;100.00;99758.78;5076299;28;20205;-71
2023/12/05 08:37:11;;;;;;;45.27;26.80;;;0.70;99.90;;;-0.54;100.00;99761.63;5077104;28;20304;-71
2023/12/05 08:39:39;;;;;;;40.73;25.43;;;0.60;99.90;;;-0.53;100.00;99764.16;5076219;28;20266;-71
2023/12/05 08:42:08;;;;;;;41.10;24.27;;;0.70;99.90;;;-0.49;100.00;99764.78;5076154;28;20229;-71
2023/12/05 08:44:37;;;;;;;42.33;25.53;;;0.70;99.90;;;-0.46;100.00;99766.34;5075831;28;20201;-71
2023/12/05 08:47:05;;;;;;;37.80;24.20;;;0.70;99.90;;;-0.47;100.00;99767.28;5076070;28;20316;-71
2023/12/05 08:49:33;;;;;;;43.83;25.17;;;0.70;99.90;;;-0.47;100.00;99768.13;5076074;28;20296;-71
2023/12/05 08:52:02;;;;;;;42.67;25.23;;;0.80;99.90;;;-0.46;100.00;99763.72;5076123;28;20229;-71
2023/12/05 08:54:30;;;;;;;46.43;26.07;;;0.80;99.90;;;-0.43;100.00;99768.72;5076022;28;20275;-71
2023/12/05 08:56:58;;;;;;;42.47;25.63;;;0.70;99.90;;;-0.42;100.00;99762.53;5075730;28;20275;-71
2023/12/05 08:59:25;;;;;;;44.10;25.30;;;0.70;99.90;;;-0.42;100.00;99762.53;5075863;28;20239;-72
2023/12/05 09:01:55;;;;;;;42.73;24.80;;;0.80;99.90;;;-0.39;100.00;99771.03;5075822;28;20222;-72
2023/12/05 09:04:23;;;;;;;40.23;25.90;;;0.80;99.90;;;-0.37;100.00;99763.00;5074893;28;20201;-72
2023/12/05 09:06:51;;;;;;;39.63;24.60;;;0.80;99.90;;;-0.39;100.00;99773.66;5075190;28;20209;-72
2023/12/05 09:09:20;;;;;;;44.50;24.80;;;0.80;99.90;;;-0.36;100.00;99770.78;5075761;28;20201;-72
2023/12/05 09:11:48;;;;;;;38.33;24.53;;;0.80;99.90;;;-0.35;100.00;99769.84;5075668;28;20251;-72
2023/12/05 09:14:16;;;;;;;43.77;25.40;;;0.80;99.90;;;-0.32;100.00;99771.41;5075675;28;20262;-72
2023/12/05 09:16:44;;;;;;;42.87;25.57;;;0.80;99.90;;;-0.31;100.00;99773.09;5075319;28;20742;-72
2023/12/05 09:19:14;;;;;;;45.27;26.60;;;0.80;99.90;;;-0.28;100.00;99775.47;5075585;28;20343;-72
2023/12/05 09:21:42;;;;;;;42.20;25.17;;;0.90;99.90;;;-0.27;100.00;99775.34;5075416;28;20224;-72
2023/12/05 09:24:10;;;;;;;44.03;25.40;;;0.90;99.90;;;-0.22;100.00;99777.66;5075129;28;20211;-72
2023/12/05 09:26:38;;;;;;;40.80;24.33;;;1.00;99.90;;;-0.23;100.00;99776.81;5075396;28;20209;-72
2023/12/05 09:29:07;;;;;;;42.50;25.17;;;0.90;99.90;;;-0.21;100.00;99774.91;5075133;28;20706;-72
2023/12/05 09:31:35;;;;;;;46.77;26.03;;;1.00;99.90;;;-0.21;100.00;99776.69;5075093;28;20324;-72
2023/12/05 09:34:03;;;;;;;41.33;24.63;;;1.00;99.90;;;-0.18;100.00;99779.09;5075268;28;20185;-72
2023/12/05 09:36:33;;;;;;;39.50;23.80;;;1.20;99.90;;;-0.18;100.00;99787.84;5075239;28;20594;-72
2023/12/05 09:39:02;;;;;;;45.40;25.67;;;1.20;99.90;;;-0.16;100.00;99783.28;5075203;28;20208;-72
2023/12/05 09:41:30;;;;;;;38.20;22.93;;;1.00;99.90;;;-0.12;100.00;99789.16;5074976;28;20221;-72
2023/12/05 09:44:02;;;;;;;41.67;24.77;;;1.10;99.90;;;-0.15;100.00;99776.22;5075105;28;20347;-72
2023/12/05 09:46:37;;;;;;;39.67;23.70;;;1.10;99.90;;;-0.13;100.00;99782.19;5074668;28;20622;-72
2023/12/05 09:49:17;;;;;;;40.67;24.27;;;1.00;99.90;;;-0.10;100.00;99771.44;5074569;28;20253;-69
2023/12/05 09:51:47;;;;;;;44.57;24.97;;;1.10;99.90;;;-0.13;100.00;99772.53;5074791;28;20225;-69
2023/12/05 09:54:16;;;;;;;42.37;24.67;;;1.00;99.90;;;-0.12;100.00;99773.38;5074585;28;20574;-69
2023/12/05 09:56:45;;;;;;;40.13;23.37;;;1.10;99.90;;;-0.10;100.00;99780.19;5074715;28;20263;-68
2023/12/05 09:59:14;;;;;;;39.43;24.67;;;1.10;99.90;;;-0.13;100.00;99772.53;5074378;28;20208;-68
2023/12/05 10:01:45;;;;;;;39.57;23.60;;;1.10;99.90;;;-0.08;100.00;99780.06;5074625;28;20227;-69
2023/12/05 10:04:17;;;;;;;41.70;24.53;;;1.10;99.90;;;-0.08;100.00;99777.44;5074723;28;20186;-69
2023/12/05 10:06:49;;;;;;;40.87;23.80;;;1.10;99.90;;;-0.07;100.00;99772.06;5074279;28;20232;-68
2023/12/05 10:09:21;;;;;;;41.03;24.93;;;1.20;99.90;;;-0.04;100.00;99776.25;5074535;28;20216;-69
2023/12/05 10:11:51;;;;;;;42.20;24.73;;;1.10;99.90;;;-0.03;100.00;99772.66;5074501;28;20244;-69
2023/12/05 10:14:19;;;;;;;40.33;24.53;;;1.20;99.90;;;-0.02;100.00;99767.28;5074260;28;20251;-69
2023/12/05 10:16:51;;;;;;;39.60;23.13;;;1.20;99.90;;;-0.01;100.00;99771.59;5073967;28;20245;-69